sensor_id;sensor_type;location;lat;lon;timestamp;P1;durP1;ratioP1;P2;durP2;ratioP2
20251;SDS011;10284;58.364;15.550;2023-06-10T00:00:43;1.10;;;0.40;;
20251;SDS011;10284;58.364;15.550;2023-06-10T00:03:09;0.95;;;0.50;;
20251;SDS011;10284;58.364;15.550;2023-06-10T00:05:35;0.40;;;0.30;;
20251;SDS011;10284;58.364;15.550;2023-06-10T00:08:03;1.08;;;0.40;;
20251;SDS011;10284;58.364;15.550;2023-06-10T00:10:33;0.50;;;0.40;;
20251;SDS011;10284;58.364;15.550;2023-06-10T00:13:00;0.30;;;0.30;;
20251;SDS011;10284;58.364;15.550;2023-06-10T00:15:26;1.20;;;0.40;;
20251;SDS011;10284;58.364;15.550;2023-06-10T00:17:51;0.40;;;0.40;;
20251;SDS011;10284;58.364;15.550;2023-06-10T00:20:20;1.17;;;0.43;;
20251;SDS011;10284;58.364;15.550;2023-06-10T00:22:47;0.38;;;0.38;;
20251;SDS011;10284;58.364;15.550;2023-06-10T00:25:13;0.47;;;0.40;;
20251;SDS011;10284;58.364;15.550;2023-06-10T00:27:39;0.40;;;0.40;;
20251;SDS011;10284;58.364;15.550;2023-06-10T00:30:05;2.03;;;0.40;;
20251;SDS011;10284;58.364;15.550;2023-06-10T00:32:35;0.57;;;0.40;;
20251;SDS011;10284;58.364;15.550;2023-06-10T00:35:01;1.40;;;0.40;;
20251;SDS011;10284;58.364;15.550;2023-06-10T00:37:27;0.88;;;0.40;;
20251;SDS011;10284;58.364;15.550;2023-06-10T00:39:53;0.30;;;0.30;;
20251;SDS011;10284;58.364;15.550;2023-06-10T00:42:19;1.15;;;0.40;;
20251;SDS011;10284;58.364;15.550;2023-06-10T00:44:44;0.90;;;0.40;;
20251;SDS011;10284;58.364;15.550;2023-06-10T00:47:10;1.10;;;0.35;;
20251;SDS011;10284;58.364;15.550;2023-06-10T00:49:35;0.35;;;0.35;;
20251;SDS011;10284;58.364;15.550;2023-06-10T00:52:01;0.30;;;0.30;;
20251;SDS011;10284;58.364;15.550;2023-06-10T00:54:28;0.43;;;0.40;;
20251;SDS011;10284;58.364;15.550;2023-06-10T00:56:54;0.65;;;0.40;;
20251;SDS011;10284;58.364;15.550;2023-06-10T00:59:20;0.85;;;0.40;;
20251;SDS011;10284;58.364;15.550;2023-06-10T01:01:45;2.08;;;0.60;;
20251;SDS011;10284;58.364;15.550;2023-06-10T01:04:12;0.70;;;0.52;;
20251;SDS011;10284;58.364;15.550;2023-06-10T01:09:38;1.38;;;0.40;;
20251;SDS011;10284;58.364;15.550;2023-06-10T01:14:46;0.90;;;0.50;;
20251;SDS011;10284;58.364;15.550;2023-06-10T01:17:11;0.60;;;0.40;;
20251;SDS011;10284;58.364;15.550;2023-06-10T01:19:37;4.00;;;0.50;;
20251;SDS011;10284;58.364;15.550;2023-06-10T01:22:03;0.43;;;0.35;;
20251;SDS011;10284;58.364;15.550;2023-06-10T01:24:29;1.30;;;0.50;;
20251;SDS011;10284;58.364;15.550;2023-06-10T01:26:59;0.77;;;0.57;;
20251;SDS011;10284;58.364;15.550;2023-06-10T01:30:00;1.40;;;0.38;;
20251;SDS011;10284;58.364;15.550;2023-06-10T01:34:49;0.52;;;0.52;;
20251;SDS011;10284;58.364;15.550;2023-06-10T01:37:19;1.65;;;0.63;;
20251;SDS011;10284;58.364;15.550;2023-06-10T01:39:45;2.97;;;0.50;;
20251;SDS011;10284;58.364;15.550;2023-06-10T01:42:12;1.15;;;0.50;;
20251;SDS011;10284;58.364;15.550;2023-06-10T01:44:38;1.10;;;0.40;;
20251;SDS011;10284;58.364;15.550;2023-06-10T01:47:04;0.90;;;0.35;;
20251;SDS011;10284;58.364;15.550;2023-06-10T01:49:29;0.40;;;0.40;;
20251;SDS011;10284;58.364;15.550;2023-06-10T01:51:55;1.42;;;0.40;;
20251;SDS011;10284;58.364;15.550;2023-06-10T01:54:20;2.05;;;0.60;;
20251;SDS011;10284;58.364;15.550;2023-06-10T01:56:46;0.55;;;0.50;;
20251;SDS011;10284;58.364;15.550;2023-06-10T01:59:11;2.60;;;0.52;;
20251;SDS011;10284;58.364;15.550;2023-06-10T02:01:37;6.68;;;0.60;;
20251;SDS011;10284;58.364;15.550;2023-06-10T02:04:02;0.65;;;0.45;;
20251;SDS011;10284;58.364;15.550;2023-06-10T02:06:27;0.47;;;0.47;;
20251;SDS011;10284;58.364;15.550;2023-06-10T02:08:53;0.43;;;0.43;;
20251;SDS011;10284;58.364;15.550;2023-06-10T02:11:18;0.60;;;0.50;;
20251;SDS011;10284;58.364;15.550;2023-06-10T02:13:44;0.77;;;0.50;;
20251;SDS011;10284;58.364;15.550;2023-06-10T02:16:09;3.90;;;0.40;;
20251;SDS011;10284;58.364;15.550;2023-06-10T02:18:38;1.73;;;0.50;;
20251;SDS011;10284;58.364;15.550;2023-06-10T02:21:05;1.65;;;0.88;;
20251;SDS011;10284;58.364;15.550;2023-06-10T02:23:32;0.88;;;0.50;;
20251;SDS011;10284;58.364;15.550;2023-06-10T02:25:57;0.60;;;0.60;;
20251;SDS011;10284;58.364;15.550;2023-06-10T02:28:22;0.47;;;0.40;;
20251;SDS011;10284;58.364;15.550;2023-06-10T02:30:48;0.50;;;0.50;;
20251;SDS011;10284;58.364;15.550;2023-06-10T02:33:13;1.30;;;0.52;;
20251;SDS011;10284;58.364;15.550;2023-06-10T02:35:40;0.85;;;0.63;;
20251;SDS011;10284;58.364;15.550;2023-06-10T02:38:05;1.95;;;0.50;;
20251;SDS011;10284;58.364;15.550;2023-06-10T02:40:31;1.98;;;0.50;;
20251;SDS011;10284;58.364;15.550;2023-06-10T02:42:57;0.30;;;0.30;;
20251;SDS011;10284;58.364;15.550;2023-06-10T02:45:23;0.50;;;0.50;;
20251;SDS011;10284;58.364;15.550;2023-06-10T02:47:49;1.10;;;0.50;;
20251;SDS011;10284;58.364;15.550;2023-06-10T02:50:14;1.95;;;0.50;;
20251;SDS011;10284;58.364;15.550;2023-06-10T02:52:40;0.75;;;0.40;;
20251;SDS011;10284;58.364;15.550;2023-06-10T02:55:06;0.35;;;0.35;;
20251;SDS011;10284;58.364;15.550;2023-06-10T02:57:31;1.83;;;0.50;;
20251;SDS011;10284;58.364;15.550;2023-06-10T02:59:57;0.40;;;0.40;;
20251;SDS011;10284;58.364;15.550;2023-06-10T03:02:23;0.57;;;0.40;;
20251;SDS011;10284;58.364;15.550;2023-06-10T03:04:53;1.73;;;0.50;;
20251;SDS011;10284;58.364;15.550;2023-06-10T03:07:21;0.40;;;0.40;;
20251;SDS011;10284;58.364;15.550;2023-06-10T03:09:46;2.05;;;0.40;;
20251;SDS011;10284;58.364;15.550;2023-06-10T03:12:12;1.10;;;0.40;;
20251;SDS011;10284;58.364;15.550;2023-06-10T03:14:37;3.78;;;0.50;;
20251;SDS011;10284;58.364;15.550;2023-06-10T03:17:04;1.20;;;0.50;;
20251;SDS011;10284;58.364;15.550;2023-06-10T03:19:30;0.40;;;0.40;;
20251;SDS011;10284;58.364;15.550;2023-06-10T03:22:09;0.68;;;0.57;;
20251;SDS011;10284;58.364;15.550;2023-06-10T03:24:35;1.48;;;0.55;;
20251;SDS011;10284;58.364;15.550;2023-06-10T03:27:01;0.60;;;0.60;;
20251;SDS011;10284;58.364;15.550;2023-06-10T03:29:29;0.40;;;0.40;;
20251;SDS011;10284;58.364;15.550;2023-06-10T03:31:55;0.50;;;0.32;;
20251;SDS011;10284;58.364;15.550;2023-06-10T03:34:21;0.85;;;0.40;;
20251;SDS011;10284;58.364;15.550;2023-06-10T03:36:48;1.70;;;0.40;;
20251;SDS011;10284;58.364;15.550;2023-06-10T03:39:14;0.50;;;0.43;;
20251;SDS011;10284;58.364;15.550;2023-06-10T03:41:40;0.90;;;0.40;;
20251;SDS011;10284;58.364;15.550;2023-06-10T03:44:05;0.30;;;0.30;;
20251;SDS011;10284;58.364;15.550;2023-06-10T03:46:31;1.27;;;0.63;;
20251;SDS011;10284;58.364;15.550;2023-06-10T03:48:56;0.75;;;0.50;;
20251;SDS011;10284;58.364;15.550;2023-06-10T03:51:22;0.50;;;0.50;;
20251;SDS011;10284;58.364;15.550;2023-06-10T03:53:48;1.33;;;0.60;;
20251;SDS011;10284;58.364;15.550;2023-06-10T03:56:13;0.93;;;0.65;;
20251;SDS011;10284;58.364;15.550;2023-06-10T03:58:38;0.60;;;0.60;;
20251;SDS011;10284;58.364;15.550;2023-06-10T04:01:04;1.30;;;0.60;;
20251;SDS011;10284;58.364;15.550;2023-06-10T04:03:29;0.85;;;0.65;;
20251;SDS011;10284;58.364;15.550;2023-06-10T04:05:55;1.77;;;0.50;;
20251;SDS011;10284;58.364;15.550;2023-06-10T04:08:20;1.33;;;0.60;;
20251;SDS011;10284;58.364;15.550;2023-06-10T04:10:47;1.08;;;0.82;;
20251;SDS011;10284;58.364;15.550;2023-06-10T04:13:12;1.45;;;0.60;;
20251;SDS011;10284;58.364;15.550;2023-06-10T04:15:39;2.35;;;0.60;;
20251;SDS011;10284;58.364;15.550;2023-06-10T04:18:06;2.13;;;0.70;;
20251;SDS011;10284;58.364;15.550;2023-06-10T04:20:31;1.25;;;0.60;;
20251;SDS011;10284;58.364;15.550;2023-06-10T04:22:57;2.40;;;0.80;;
20251;SDS011;10284;58.364;15.550;2023-06-10T04:25:22;0.70;;;0.70;;
20251;SDS011;10284;58.364;15.550;2023-06-10T04:27:49;1.92;;;0.82;;
20251;SDS011;10284;58.364;15.550;2023-06-10T04:30:15;2.35;;;0.63;;
20251;SDS011;10284;58.364;15.550;2023-06-10T04:32:41;1.02;;;0.50;;
20251;SDS011;10284;58.364;15.550;2023-06-10T04:35:07;1.02;;;0.60;;
20251;SDS011;10284;58.364;15.550;2023-06-10T04:37:32;0.60;;;0.60;;
20251;SDS011;10284;58.364;15.550;2023-06-10T04:39:58;0.80;;;0.50;;
20251;SDS011;10284;58.364;15.550;2023-06-10T04:42:24;0.60;;;0.50;;
20251;SDS011;10284;58.364;15.550;2023-06-10T04:44:49;0.65;;;0.65;;
20251;SDS011;10284;58.364;15.550;2023-06-10T04:47:15;0.60;;;0.60;;
20251;SDS011;10284;58.364;15.550;2023-06-10T04:49:42;1.02;;;0.50;;
20251;SDS011;10284;58.364;15.550;2023-06-10T04:52:07;2.70;;;0.60;;
20251;SDS011;10284;58.364;15.550;2023-06-10T04:54:33;1.10;;;0.77;;
20251;SDS011;10284;58.364;15.550;2023-06-10T04:56:58;2.20;;;0.60;;
20251;SDS011;10284;58.364;15.550;2023-06-10T04:59:25;1.23;;;0.70;;
20251;SDS011;10284;58.364;15.550;2023-06-10T05:01:50;0.77;;;0.60;;
20251;SDS011;10284;58.364;15.550;2023-06-10T05:04:16;2.20;;;0.60;;
20251;SDS011;10284;58.364;15.550;2023-06-10T05:06:41;0.82;;;0.70;;
20251;SDS011;10284;58.364;15.550;2023-06-10T05:09:07;1.52;;;0.60;;
20251;SDS011;10284;58.364;15.550;2023-06-10T05:11:32;1.25;;;0.60;;
20251;SDS011;10284;58.364;15.550;2023-06-10T05:13:57;2.42;;;0.50;;
20251;SDS011;10284;58.364;15.550;2023-06-10T05:16:23;3.30;;;0.85;;
20251;SDS011;10284;58.364;15.550;2023-06-10T05:18:48;1.70;;;0.52;;
20251;SDS011;10284;58.364;15.550;2023-06-10T05:21:15;0.50;;;0.50;;
20251;SDS011;10284;58.364;15.550;2023-06-10T05:23:41;0.82;;;0.60;;
20251;SDS011;10284;58.364;15.550;2023-06-10T05:26:07;1.38;;;0.70;;
20251;SDS011;10284;58.364;15.550;2023-06-10T05:28:32;0.68;;;0.50;;
20251;SDS011;10284;58.364;15.550;2023-06-10T05:30:58;1.38;;;0.60;;
20251;SDS011;10284;58.364;15.550;2023-06-10T05:33:23;2.88;;;0.60;;
20251;SDS011;10284;58.364;15.550;2023-06-10T05:35:49;2.28;;;0.60;;
20251;SDS011;10284;58.364;15.550;2023-06-10T05:38:14;1.15;;;0.60;;
20251;SDS011;10284;58.364;15.550;2023-06-10T05:40:40;1.23;;;0.50;;
20251;SDS011;10284;58.364;15.550;2023-06-10T05:43:05;2.78;;;0.60;;
20251;SDS011;10284;58.364;15.550;2023-06-10T05:45:31;2.20;;;0.50;;
20251;SDS011;10284;58.364;15.550;2023-06-10T05:47:56;0.73;;;0.43;;
20251;SDS011;10284;58.364;15.550;2023-06-10T05:50:24;1.35;;;0.50;;
20251;SDS011;10284;58.364;15.550;2023-06-10T05:52:49;2.33;;;0.90;;
20251;SDS011;10284;58.364;15.550;2023-06-10T05:55:15;2.20;;;0.55;;
20251;SDS011;10284;58.364;15.550;2023-06-10T05:57:43;0.47;;;0.47;;
20251;SDS011;10284;58.364;15.550;2023-06-10T06:00:09;0.85;;;0.50;;
20251;SDS011;10284;58.364;15.550;2023-06-10T06:02:35;0.85;;;0.47;;
20251;SDS011;10284;58.364;15.550;2023-06-10T06:05:00;0.43;;;0.40;;
20251;SDS011;10284;58.364;15.550;2023-06-10T06:07:26;1.13;;;0.50;;
20251;SDS011;10284;58.364;15.550;2023-06-10T06:09:51;0.57;;;0.40;;
20251;SDS011;10284;58.364;15.550;2023-06-10T06:12:16;0.60;;;0.60;;
20251;SDS011;10284;58.364;15.550;2023-06-10T06:14:42;1.80;;;0.80;;
20251;SDS011;10284;58.364;15.550;2023-06-10T06:17:07;1.27;;;0.70;;
20251;SDS011;10284;58.364;15.550;2023-06-10T06:19:33;2.03;;;0.50;;
20251;SDS011;10284;58.364;15.550;2023-06-10T06:21:59;0.52;;;0.47;;
20251;SDS011;10284;58.364;15.550;2023-06-10T06:24:24;2.88;;;0.47;;
20251;SDS011;10284;58.364;15.550;2023-06-10T06:26:50;0.70;;;0.40;;
20251;SDS011;10284;58.364;15.550;2023-06-10T06:29:15;0.70;;;0.50;;
20251;SDS011;10284;58.364;15.550;2023-06-10T06:31:40;1.45;;;0.40;;
20251;SDS011;10284;58.364;15.550;2023-06-10T06:34:06;0.63;;;0.57;;
20251;SDS011;10284;58.364;15.550;2023-06-10T06:36:31;1.02;;;0.60;;
20251;SDS011;10284;58.364;15.550;2023-06-10T06:38:57;1.67;;;0.80;;
20251;SDS011;10284;58.364;15.550;2023-06-10T06:41:23;1.25;;;0.40;;
20251;SDS011;10284;58.364;15.550;2023-06-10T06:43:51;1.42;;;0.60;;
20251;SDS011;10284;58.364;15.550;2023-06-10T06:46:16;3.42;;;0.50;;
20251;SDS011;10284;58.364;15.550;2023-06-10T06:48:42;0.88;;;0.40;;
20251;SDS011;10284;58.364;15.550;2023-06-10T06:51:07;0.70;;;0.60;;
20251;SDS011;10284;58.364;15.550;2023-06-10T06:53:32;1.65;;;0.60;;
20251;SDS011;10284;58.364;15.550;2023-06-10T06:55:58;0.80;;;0.40;;
20251;SDS011;10284;58.364;15.550;2023-06-10T06:58:23;0.43;;;0.40;;
20251;SDS011;10284;58.364;15.550;2023-06-10T07:00:49;0.80;;;0.32;;
20251;SDS011;10284;58.364;15.550;2023-06-10T07:03:15;2.00;;;0.50;;
20251;SDS011;10284;58.364;15.550;2023-06-10T07:05:40;0.50;;;0.50;;
20251;SDS011;10284;58.364;15.550;2023-06-10T07:08:06;0.40;;;0.40;;
20251;SDS011;10284;58.364;15.550;2023-06-10T07:10:31;0.50;;;0.47;;
20251;SDS011;10284;58.364;15.550;2023-06-10T07:12:57;0.47;;;0.45;;
20251;SDS011;10284;58.364;15.550;2023-06-10T07:15:23;0.30;;;0.30;;
20251;SDS011;10284;58.364;15.550;2023-06-10T07:17:48;0.30;;;0.30;;
20251;SDS011;10284;58.364;15.550;2023-06-10T07:20:14;0.50;;;0.50;;
20251;SDS011;10284;58.364;15.550;2023-06-10T07:22:40;0.85;;;0.45;;
20251;SDS011;10284;58.364;15.550;2023-06-10T07:25:06;1.40;;;0.45;;
20251;SDS011;10284;58.364;15.550;2023-06-10T07:27:32;1.83;;;0.70;;
20251;SDS011;10284;58.364;15.550;2023-06-10T07:29:57;0.73;;;0.55;;
20251;SDS011;10284;58.364;15.550;2023-06-10T07:32:23;2.03;;;0.70;;
20251;SDS011;10284;58.364;15.550;2023-06-10T07:34:49;0.50;;;0.50;;
20251;SDS011;10284;58.364;15.550;2023-06-10T07:37:15;1.27;;;0.50;;
20251;SDS011;10284;58.364;15.550;2023-06-10T07:39:40;0.75;;;0.50;;
20251;SDS011;10284;58.364;15.550;2023-06-10T07:42:07;0.38;;;0.38;;
20251;SDS011;10284;58.364;15.550;2023-06-10T07:44:32;0.30;;;0.30;;
20251;SDS011;10284;58.364;15.550;2023-06-10T07:46:58;0.43;;;0.40;;
20251;SDS011;10284;58.364;15.550;2023-06-10T07:49:23;3.65;;;0.50;;
20251;SDS011;10284;58.364;15.550;2023-06-10T07:51:50;0.55;;;0.40;;
20251;SDS011;10284;58.364;15.550;2023-06-10T07:54:15;1.63;;;0.50;;
20251;SDS011;10284;58.364;15.550;2023-06-10T07:56:41;2.67;;;0.43;;
20251;SDS011;10284;58.364;15.550;2023-06-10T07:59:06;0.40;;;0.40;;
20251;SDS011;10284;58.364;15.550;2023-06-10T08:01:32;1.40;;;0.40;;
20251;SDS011;10284;58.364;15.550;2023-06-10T08:03:58;1.13;;;0.40;;
20251;SDS011;10284;58.364;15.550;2023-06-10T08:06:23;0.32;;;0.30;;
20251;SDS011;10284;58.364;15.550;2023-06-10T08:08:49;2.08;;;0.45;;
20251;SDS011;10284;58.364;15.550;2023-06-10T08:11:14;0.73;;;0.50;;
20251;SDS011;10284;58.364;15.550;2023-06-10T08:13:40;1.63;;;0.50;;
20251;SDS011;10284;58.364;15.550;2023-06-10T08:16:05;2.00;;;0.50;;
20251;SDS011;10284;58.364;15.550;2023-06-10T08:18:31;0.43;;;0.40;;
20251;SDS011;10284;58.364;15.550;2023-06-10T08:20:56;1.33;;;0.35;;
20251;SDS011;10284;58.364;15.550;2023-06-10T08:23:22;1.48;;;0.50;;
20251;SDS011;10284;58.364;15.550;2023-06-10T08:25:47;0.88;;;0.40;;
20251;SDS011;10284;58.364;15.550;2023-06-10T08:28:13;0.98;;;0.60;;
20251;SDS011;10284;58.364;15.550;2023-06-10T08:30:38;0.93;;;0.45;;
20251;SDS011;10284;58.364;15.550;2023-06-10T08:33:04;0.50;;;0.43;;
20251;SDS011;10284;58.364;15.550;2023-06-10T08:35:29;0.43;;;0.40;;
20251;SDS011;10284;58.364;15.550;2023-06-10T08:37:55;0.30;;;0.30;;
20251;SDS011;10284;58.364;15.550;2023-06-10T08:40:20;0.40;;;0.40;;
20251;SDS011;10284;58.364;15.550;2023-06-10T08:42:49;1.33;;;0.50;;
20251;SDS011;10284;58.364;15.550;2023-06-10T08:45:38;2.40;;;0.40;;
20251;SDS011;10284;58.364;15.550;2023-06-10T08:48:04;0.95;;;0.40;;
20251;SDS011;10284;58.364;15.550;2023-06-10T08:50:33;1.10;;;0.50;;
20251;SDS011;10284;58.364;15.550;2023-06-10T08:53:00;0.52;;;0.40;;
20251;SDS011;10284;58.364;15.550;2023-06-10T08:55:29;0.30;;;0.30;;
20251;SDS011;10284;58.364;15.550;2023-06-10T08:57:56;0.93;;;0.40;;
20251;SDS011;10284;58.364;15.550;2023-06-10T09:00:21;0.40;;;0.38;;
20251;SDS011;10284;58.364;15.550;2023-06-10T09:02:47;0.43;;;0.40;;
20251;SDS011;10284;58.364;15.550;2023-06-10T09:05:13;0.40;;;0.32;;
20251;SDS011;10284;58.364;15.550;2023-06-10T09:07:38;0.43;;;0.40;;
20251;SDS011;10284;58.364;15.550;2023-06-10T09:10:04;0.73;;;0.50;;
20251;SDS011;10284;58.364;15.550;2023-06-10T09:12:32;2.15;;;0.50;;
20251;SDS011;10284;58.364;15.550;2023-06-10T09:14:59;1.30;;;0.50;;
20251;SDS011;10284;58.364;15.550;2023-06-10T09:17:25;1.25;;;0.60;;
20251;SDS011;10284;58.364;15.550;2023-06-10T09:19:51;0.40;;;0.40;;
20251;SDS011;10284;58.364;15.550;2023-06-10T09:22:18;0.63;;;0.47;;
20251;SDS011;10284;58.364;15.550;2023-06-10T09:24:44;0.60;;;0.40;;
20251;SDS011;10284;58.364;15.550;2023-06-10T09:27:11;0.32;;;0.30;;
20251;SDS011;10284;58.364;15.550;2023-06-10T09:29:45;0.77;;;0.47;;
20251;SDS011;10284;58.364;15.550;2023-06-10T09:32:11;1.17;;;0.43;;
20251;SDS011;10284;58.364;15.550;2023-06-10T09:34:37;0.40;;;0.40;;
20251;SDS011;10284;58.364;15.550;2023-06-10T09:37:03;0.50;;;0.50;;
20251;SDS011;10284;58.364;15.550;2023-06-10T09:39:28;1.40;;;0.40;;
20251;SDS011;10284;58.364;15.550;2023-06-10T09:41:54;1.10;;;0.50;;
20251;SDS011;10284;58.364;15.550;2023-06-10T09:44:20;0.40;;;0.40;;
20251;SDS011;10284;58.364;15.550;2023-06-10T09:46:47;0.65;;;0.40;;
20251;SDS011;10284;58.364;15.550;2023-06-10T09:49:14;0.82;;;0.30;;
20251;SDS011;10284;58.364;15.550;2023-06-10T09:51:53;0.88;;;0.38;;
20251;SDS011;10284;58.364;15.550;2023-06-10T09:54:20;1.38;;;0.50;;
20251;SDS011;10284;58.364;15.550;2023-06-10T09:56:49;0.40;;;0.40;;
20251;SDS011;10284;58.364;15.550;2023-06-10T09:59:16;0.50;;;0.32;;
20251;SDS011;10284;58.364;15.550;2023-06-10T10:01:54;0.63;;;0.60;;
20251;SDS011;10284;58.364;15.550;2023-06-10T10:04:23;0.40;;;0.40;;
20251;SDS011;10284;58.364;15.550;2023-06-10T10:06:50;0.50;;;0.50;;
20251;SDS011;10284;58.364;15.550;2023-06-10T10:09:15;0.70;;;0.40;;
20251;SDS011;10284;58.364;15.550;2023-06-10T10:11:41;3.40;;;0.50;;
20251;SDS011;10284;58.364;15.550;2023-06-10T10:14:08;1.02;;;0.32;;
20251;SDS011;10284;58.364;15.550;2023-06-10T10:16:35;4.22;;;0.50;;
20251;SDS011;10284;58.364;15.550;2023-06-10T10:19:25;0.63;;;0.35;;
20251;SDS011;10284;58.364;15.550;2023-06-10T10:21:53;0.70;;;0.40;;
20251;SDS011;10284;58.364;15.550;2023-06-10T10:24:23;0.75;;;0.40;;
20251;SDS011;10284;58.364;15.550;2023-06-10T10:26:56;0.45;;;0.40;;
20251;SDS011;10284;58.364;15.550;2023-06-10T10:29:24;0.45;;;0.40;;
20251;SDS011;10284;58.364;15.550;2023-06-10T10:31:53;1.35;;;0.40;;
20251;SDS011;10284;58.364;15.550;2023-06-10T10:34:21;1.17;;;0.50;;
20251;SDS011;10284;58.364;15.550;2023-06-10T10:36:50;0.47;;;0.47;;
20251;SDS011;10284;58.364;15.550;2023-06-10T10:39:16;0.43;;;0.40;;
20251;SDS011;10284;58.364;15.550;2023-06-10T10:41:42;0.93;;;0.43;;
20251;SDS011;10284;58.364;15.550;2023-06-10T10:44:07;1.88;;;0.40;;
20251;SDS011;10284;58.364;15.550;2023-06-10T10:49:30;0.63;;;0.47;;
20251;SDS011;10284;58.364;15.550;2023-06-10T10:51:55;0.65;;;0.30;;
20251;SDS011;10284;58.364;15.550;2023-06-10T10:54:27;1.23;;;0.40;;
20251;SDS011;10284;58.364;15.550;2023-06-10T10:59:55;1.83;;;0.50;;
20251;SDS011;10284;58.364;15.550;2023-06-10T11:05:05;0.95;;;0.40;;
20251;SDS011;10284;58.364;15.550;2023-06-10T11:07:32;0.63;;;0.50;;
20251;SDS011;10284;58.364;15.550;2023-06-10T11:10:11;0.43;;;0.35;;
20251;SDS011;10284;58.364;15.550;2023-06-10T11:15:20;0.50;;;0.45;;
20251;SDS011;10284;58.364;15.550;2023-06-10T11:20:44;0.68;;;0.40;;
20251;SDS011;10284;58.364;15.550;2023-06-10T11:26:09;0.60;;;0.52;;
20251;SDS011;10284;58.364;15.550;2023-06-10T11:28:41;0.63;;;0.50;;
20251;SDS011;10284;58.364;15.550;2023-06-10T11:31:08;0.57;;;0.50;;
20251;SDS011;10284;58.364;15.550;2023-06-10T11:33:38;1.52;;;0.57;;
20251;SDS011;10284;58.364;15.550;2023-06-10T11:36:07;2.78;;;0.60;;
20251;SDS011;10284;58.364;15.550;2023-06-10T11:38:33;2.03;;;0.80;;
20251;SDS011;10284;58.364;15.550;2023-06-10T11:40:59;5.63;;;0.60;;
20251;SDS011;10284;58.364;15.550;2023-06-10T11:43:24;1.08;;;0.50;;
20251;SDS011;10284;58.364;15.550;2023-06-10T11:45:53;0.93;;;0.60;;
20251;SDS011;10284;58.364;15.550;2023-06-10T11:48:20;1.13;;;0.60;;
20251;SDS011;10284;58.364;15.550;2023-06-10T11:50:45;0.50;;;0.50;;
20251;SDS011;10284;58.364;15.550;2023-06-10T11:53:11;2.38;;;0.60;;
20251;SDS011;10284;58.364;15.550;2023-06-10T11:55:43;2.97;;;0.70;;
20251;SDS011;10284;58.364;15.550;2023-06-10T11:58:16;1.23;;;0.80;;
20251;SDS011;10284;58.364;15.550;2023-06-10T12:00:52;0.95;;;0.60;;
20251;SDS011;10284;58.364;15.550;2023-06-10T12:03:19;1.15;;;0.52;;
20251;SDS011;10284;58.364;15.550;2023-06-10T12:06:01;3.25;;;0.50;;
20251;SDS011;10284;58.364;15.550;2023-06-10T12:08:28;3.92;;;0.80;;
20251;SDS011;10284;58.364;15.550;2023-06-10T12:10:54;2.85;;;0.65;;
20251;SDS011;10284;58.364;15.550;2023-06-10T12:13:21;0.50;;;0.50;;
20251;SDS011;10284;58.364;15.550;2023-06-10T12:15:48;1.88;;;0.32;;
20251;SDS011;10284;58.364;15.550;2023-06-10T12:18:17;0.50;;;0.50;;
20251;SDS011;10284;58.364;15.550;2023-06-10T12:20:43;0.63;;;0.60;;
20251;SDS011;10284;58.364;15.550;2023-06-10T12:23:09;1.75;;;0.60;;
20251;SDS011;10284;58.364;15.550;2023-06-10T12:25:34;1.00;;;0.60;;
20251;SDS011;10284;58.364;15.550;2023-06-10T12:28:02;0.50;;;0.43;;
20251;SDS011;10284;58.364;15.550;2023-06-10T12:30:28;0.85;;;0.45;;
20251;SDS011;10284;58.364;15.550;2023-06-10T12:32:54;1.95;;;0.47;;
20251;SDS011;10284;58.364;15.550;2023-06-10T12:35:21;0.52;;;0.50;;
20251;SDS011;10284;58.364;15.550;2023-06-10T12:37:56;2.28;;;0.68;;
20251;SDS011;10284;58.364;15.550;2023-06-10T12:40:37;0.85;;;0.50;;
20251;SDS011;10284;58.364;15.550;2023-06-10T12:43:05;1.30;;;0.60;;
20251;SDS011;10284;58.364;15.550;2023-06-10T12:45:35;2.10;;;0.50;;
20251;SDS011;10284;58.364;15.550;2023-06-10T12:50:31;1.92;;;0.60;;
20251;SDS011;10284;58.364;15.550;2023-06-10T12:52:57;0.93;;;0.75;;
20251;SDS011;10284;58.364;15.550;2023-06-10T12:55:24;2.00;;;0.50;;
20251;SDS011;10284;58.364;15.550;2023-06-10T12:57:50;0.70;;;0.63;;
20251;SDS011;10284;58.364;15.550;2023-06-10T13:00:16;1.90;;;0.70;;
20251;SDS011;10284;58.364;15.550;2023-06-10T13:02:42;0.68;;;0.68;;
20251;SDS011;10284;58.364;15.550;2023-06-10T13:05:08;1.90;;;0.68;;
20251;SDS011;10284;58.364;15.550;2023-06-10T13:07:33;0.68;;;0.60;;
20251;SDS011;10284;58.364;15.550;2023-06-10T13:09:59;2.08;;;0.85;;
20251;SDS011;10284;58.364;15.550;2023-06-10T13:12:25;1.40;;;0.70;;
20251;SDS011;10284;58.364;15.550;2023-06-10T13:14:53;0.68;;;0.50;;
20251;SDS011;10284;58.364;15.550;2023-06-10T13:17:20;0.60;;;0.60;;
20251;SDS011;10284;58.364;15.550;2023-06-10T13:19:45;1.42;;;0.73;;
20251;SDS011;10284;58.364;15.550;2023-06-10T13:22:11;1.27;;;0.88;;
20251;SDS011;10284;58.364;15.550;2023-06-10T13:24:38;1.50;;;0.80;;
20251;SDS011;10284;58.364;15.550;2023-06-10T13:27:04;1.65;;;0.73;;
20251;SDS011;10284;58.364;15.550;2023-06-10T13:29:31;1.35;;;0.88;;
20251;SDS011;10284;58.364;15.550;2023-06-10T13:31:57;0.55;;;0.52;;
20251;SDS011;10284;58.364;15.550;2023-06-10T13:34:22;2.47;;;0.70;;
20251;SDS011;10284;58.364;15.550;2023-06-10T13:36:48;2.95;;;0.77;;
20251;SDS011;10284;58.364;15.550;2023-06-10T13:39:13;1.08;;;0.90;;
20251;SDS011;10284;58.364;15.550;2023-06-10T13:41:40;1.15;;;0.70;;
20251;SDS011;10284;58.364;15.550;2023-06-10T13:44:06;0.98;;;0.70;;
20251;SDS011;10284;58.364;15.550;2023-06-10T13:46:31;1.73;;;1.00;;
20251;SDS011;10284;58.364;15.550;2023-06-10T13:49:03;2.55;;;0.80;;
20251;SDS011;10284;58.364;15.550;2023-06-10T13:51:28;0.82;;;0.50;;
20251;SDS011;10284;58.364;15.550;2023-06-10T13:53:54;2.08;;;0.65;;
20251;SDS011;10284;58.364;15.550;2023-06-10T13:56:19;1.15;;;0.70;;
20251;SDS011;10284;58.364;15.550;2023-06-10T13:58:44;1.70;;;0.73;;
20251;SDS011;10284;58.364;15.550;2023-06-10T14:01:10;0.75;;;0.73;;
20251;SDS011;10284;58.364;15.550;2023-06-10T14:03:35;1.67;;;0.70;;
20251;SDS011;10284;58.364;15.550;2023-06-10T14:06:01;2.90;;;0.95;;
20251;SDS011;10284;58.364;15.550;2023-06-10T14:08:27;0.95;;;0.80;;
20251;SDS011;10284;58.364;15.550;2023-06-10T14:10:52;1.00;;;0.70;;
20251;SDS011;10284;58.364;15.550;2023-06-10T14:13:18;2.28;;;0.70;;
20251;SDS011;10284;58.364;15.550;2023-06-10T14:15:44;1.10;;;0.70;;
20251;SDS011;10284;58.364;15.550;2023-06-10T14:18:09;0.93;;;0.77;;
20251;SDS011;10284;58.364;15.550;2023-06-10T14:20:35;1.08;;;0.90;;
20251;SDS011;10284;58.364;15.550;2023-06-10T14:23:01;4.47;;;0.63;;
20251;SDS011;10284;58.364;15.550;2023-06-10T14:25:26;1.25;;;0.65;;
20251;SDS011;10284;58.364;15.550;2023-06-10T14:27:52;1.63;;;0.70;;
20251;SDS011;10284;58.364;15.550;2023-06-10T14:30:17;0.73;;;0.73;;
20251;SDS011;10284;58.364;15.550;2023-06-10T14:32:43;1.40;;;0.90;;
20251;SDS011;10284;58.364;15.550;2023-06-10T14:35:08;0.70;;;0.70;;
20251;SDS011;10284;58.364;15.550;2023-06-10T14:37:34;1.50;;;0.50;;
20251;SDS011;10284;58.364;15.550;2023-06-10T14:40:00;0.88;;;0.70;;
20251;SDS011;10284;58.364;15.550;2023-06-10T14:42:25;4.25;;;0.80;;
20251;SDS011;10284;58.364;15.550;2023-06-10T14:44:51;4.13;;;0.80;;
20251;SDS011;10284;58.364;15.550;2023-06-10T14:47:16;1.08;;;0.77;;
20251;SDS011;10284;58.364;15.550;2023-06-10T14:49:42;1.08;;;0.82;;
20251;SDS011;10284;58.364;15.550;2023-06-10T14:52:08;1.35;;;0.90;;
20251;SDS011;10284;58.364;15.550;2023-06-10T14:54:34;4.07;;;1.00;;
20251;SDS011;10284;58.364;15.550;2023-06-10T14:56:59;2.25;;;1.05;;